Terminal Aerodrome Forecast
Issued by NWS Upton, NY

Current Version | Previous Version | Text Only | Print | Product List | Glossary On
Versions: 1 2 3 4 5 6 7 8 9 10 11 12 13 14 15 16 17 18 19 20 21 22 23 24 25 26 27 28 29 30 31 32 33 34 35 36
689
FTUS41 KOKX 202320
TAFISP
TAF
KISP 202320Z 2100/2124 30006KT P6SM FEW050
     FM210300 VRB03KT P6SM SKC
     FM211400 24006KT P6SM FEW250
     FM211800 21011G17KT P6SM FEW050 SCT250=

USA.gov is the U.S. government's official web portal to all federal, state and local government web resources and services.